This is the latest recevied weather packets stored in our database for station/object WK7G. If no packets are shown the sender has not sent any weather packets the latest 10 day(s).
| Time | Temp. | Humidity | Pressure | Rain* | Wind** | Luminosity | Snow |
|---|---|---|---|---|---|---|---|
| 1777601881 | 7.78° C | 46% | 1012.4 hPa | 0 mm | - | 6 W/m² | - |
| 1777601576 | 8.33° C | 40% | 1012.4 hPa | 0 mm | - | 9 W/m² | - |
| 1777601271 | 8.89° C | 39% | 1012.1 hPa | 0 mm | - | 13 W/m² | - |
| 1777600969 | 9.44° C | 39% | 1012.1 hPa | 0 mm | - | 15 W/m² | - |
| 1777600665 | 10° C | 36% | 1012.4 hPa | 0 mm | - | 18 W/m² | - |
| 1777586101 | 11.67° C | 34% | 1012.7 hPa | 0 mm | - | 615 W/m² | - |
| 1777584891 | 10.56° C | 40% | 1012.9 hPa | 0 mm | - | 148 W/m² | - |
| 1777584285 | 11.67° C | 40% | 1012.8 hPa | 0 mm | - | 736 W/m² | - |
| 1777583980 | 11.67° C | 36% | 1013 hPa | 0 mm | - | 721 W/m² | - |
| 1777583675 | 11.11° C | 36% | 1013.3 hPa | 0 mm | - | 708 W/m² | - |
| 1777583375 | 11.67° C | 43% | 1012.8 hPa | 0 mm | - | 698 W/m² | - |
| 1777582771 | 11.67° C | 39% | 1013 hPa | 0 mm | - | 710 W/m² | - |
| 1777582466 | 10° C | 42% | 1013.4 hPa | 0 mm | - | 703 W/m² | - |
| 1777582161 | 11.11° C | 40% | 1013 hPa | 0 mm | - | 706 W/m² | - |
| 1777581255 | 11.67° C | 36% | 1013.3 hPa | 0 mm | - | 727 W/m² | - |
| 1777580645 | 11.67° C | 42% | 1012.9 hPa | 0 mm | - | 757 W/m² | - |
| 1777580340 | 11.11° C | 39% | 1013.5 hPa | 0 mm | - | 760 W/m² | - |
| 1777580037 | 11.11° C | 38% | 1013.1 hPa | 0 mm | - | 776 W/m² | - |
| 1777579733 | 10.56° C | 40% | 1013.3 hPa | 0 mm | - | 801 W/m² | - |
| 1777579431 | 11.11° C | 42% | 1013.1 hPa | 0 mm | - | 795 W/m² | - |
| 1777579127 | 10° C | 43% | 1012.9 hPa | 0 mm | - | 790 W/m² | - |
| 1777578826 | 10° C | 45% | 1013.4 hPa | 0 mm | - | 788 W/m² | - |
| 1777577913 | 11.11° C | 40% | 1013.1 hPa | 0 mm | - | 799 W/m² | - |
| 1777576398 | 10.56° C | 43% | 1013.7 hPa | 0 mm | - | 866 W/m² | - |
| 1777576095 | 10.56° C | 43% | 1013.6 hPa | 0 mm | - | 855 W/m² | - |
* Rain latest hour (hover to see other rain measurements)
** Current wind speed in m/s (hover to see current wind gust speed)